THY1591 LTFM-EDDF
Flight info
| Callsign | THY1591 |
|---|---|
| Flight time | 2h 37m |
| Altitude | 40000 |
| Route | VADEN1D VADEN N618 BAKLO DCT XANEX DCT UTEKA DCT BABIT DCT GOTAR DCT ABRUK DCT SIMBA DCT AKINI T161 DEBHI DEBHI1B |
| Aircraft | A333/H-SDE3GHIJ2J3J5M1RVWXY/LB2D1 |
Departure
| Time | 2026-05-07 16:12 |
|---|---|
| Airport | İstanbul Airport (LTFM) |
Arrival
| Time | 2026-05-07 18:49 |
|---|---|
| Airport | Frankfurt Main Airport (EDDF) |
| Time | Latitude | Longitude | Altitude | Speed | Heading |
|---|---|---|---|---|---|
| 2026-05-07 15:34 | 41.26648 | 28.73757 | 340 ft | 0 kts | 269° |
| 2026-05-07 15:57 | 41.26648 | 28.73776 | 334 ft | 4 kts | 269° |
| 2026-05-07 15:58 | 41.26649 | 28.73811 | 334 ft | 3 kts | 269° |
| 2026-05-07 15:58 | 41.26648 | 28.73838 | 334 ft | 4 kts | 244° |
| 2026-05-07 15:58 | 41.26659 | 28.73863 | 334 ft | 4 kts | 206° |
| 2026-05-07 15:58 | 41.26683 | 28.73876 | 334 ft | 4 kts | 183° |
| 2026-05-07 15:59 | 41.26697 | 28.73876 | 334 ft | 0 kts | 179° |
| 2026-05-07 16:03 | 41.26695 | 28.73876 | 340 ft | 2 kts | 179° |
| 2026-05-07 16:04 | 41.26642 | 28.73878 | 335 ft | 12 kts | 179° |
| 2026-05-07 16:04 | 41.26549 | 28.73881 | 339 ft | 14 kts | 175° |
| 2026-05-07 16:04 | 41.26451 | 28.73922 | 337 ft | 16 kts | 160° |
| 2026-05-07 16:04 | 41.26426 | 28.74008 | 338 ft | 7 kts | 63° |
| 2026-05-07 16:05 | 41.26463 | 28.74025 | 337 ft | 6 kts | 6° |
| 2026-05-07 16:05 | 41.26526 | 28.74026 | 336 ft | 12 kts | 1° |
| 2026-05-07 16:05 | 41.26623 | 28.74026 | 338 ft | 16 kts | 0° |
| 2026-05-07 16:05 | 41.26750 | 28.74021 | 337 ft | 20 kts | 358° |
| 2026-05-07 16:06 | 41.26904 | 28.74016 | 335 ft | 23 kts | 359° |
| 2026-05-07 16:06 | 41.27027 | 28.74008 | 338 ft | 0 kts | 346° |
| 2026-05-07 16:06 | 41.27044 | 28.73999 | 337 ft | 6 kts | 334° |
| 2026-05-07 16:06 | 41.27053 | 28.73932 | 337 ft | 10 kts | 261° |
| 2026-05-07 16:07 | 41.27049 | 28.73797 | 336 ft | 19 kts | 270° |
| 2026-05-07 16:07 | 41.27048 | 28.73582 | 336 ft | 27 kts | 269° |
| 2026-05-07 16:07 | 41.27043 | 28.73319 | 340 ft | 21 kts | 269° |
| 2026-05-07 16:07 | 41.27041 | 28.73115 | 340 ft | 23 kts | 269° |
| 2026-05-07 16:08 | 41.27019 | 28.73002 | 334 ft | 9 kts | 224° |
| 2026-05-07 16:08 | 41.26960 | 28.72984 | 337 ft | 9 kts | 187° |
| 2026-05-07 16:08 | 41.26888 | 28.72989 | 336 ft | 11 kts | 178° |
| 2026-05-07 16:08 | 41.26800 | 28.72993 | 338 ft | 14 kts | 178° |
| 2026-05-07 16:09 | 41.26726 | 28.72953 | 336 ft | 10 kts | 244° |
| 2026-05-07 16:09 | 41.26716 | 28.72856 | 340 ft | 12 kts | 267° |
| 2026-05-07 16:09 | 41.26712 | 28.72740 | 336 ft | 14 kts | 267° |
| 2026-05-07 16:09 | 41.26708 | 28.72603 | 339 ft | 16 kts | 268° |
| 2026-05-07 16:10 | 41.26747 | 28.72520 | 337 ft | 11 kts | 335° |
| 2026-05-07 16:10 | 41.26795 | 28.72510 | 336 ft | 0 kts | 0° |
| 2026-05-07 16:10 | 41.26805 | 28.72511 | 336 ft | 3 kts | 0° |
| 2026-05-07 16:10 | 41.26832 | 28.72511 | 338 ft | 5 kts | 0° |
| 2026-05-07 16:11 | 41.26873 | 28.72512 | 337 ft | 7 kts | 0° |
| 2026-05-07 16:11 | 41.26938 | 28.72511 | 337 ft | 22 kts | 359° |
| 2026-05-07 16:11 | 41.27423 | 28.72504 | 337 ft | 115 kts | 360° |
| 2026-05-07 16:11 | 41.28473 | 28.72474 | 417 ft | 177 kts | 0° |
| 2026-05-07 16:12 | 41.29750 | 28.72429 | 1086 ft | 189 kts | 0° |
| 2026-05-07 16:12 | 41.31120 | 28.72421 | 1820 ft | 203 kts | 359° |
| 2026-05-07 16:12 | 41.32562 | 28.72446 | 2610 ft | 211 kts | 359° |
| 2026-05-07 16:12 | 41.34069 | 28.72492 | 3279 ft | 224 kts | 358° |
| 2026-05-07 16:13 | 41.35692 | 28.72505 | 3762 ft | 242 kts | 355° |
| 2026-05-07 16:13 | 41.37311 | 28.71845 | 4252 ft | 247 kts | 327° |
| 2026-05-07 16:13 | 41.38515 | 28.70250 | 4958 ft | 246 kts | 302° |
| 2026-05-07 16:13 | 41.39310 | 28.68221 | 5617 ft | 248 kts | 294° |
| 2026-05-07 16:14 | 41.40025 | 28.66110 | 6264 ft | 251 kts | 295° |
| 2026-05-07 16:14 | 41.40807 | 28.64020 | 6912 ft | 254 kts | 297° |
| 2026-05-07 16:14 | 41.41681 | 28.61947 | 7418 ft | 263 kts | 300° |
| 2026-05-07 16:14 | 41.42649 | 28.59823 | 8044 ft | 269 kts | 302° |
| 2026-05-07 16:15 | 41.43652 | 28.57702 | 8829 ft | 272 kts | 302° |
| 2026-05-07 16:15 | 41.44671 | 28.55563 | 9599 ft | 275 kts | 303° |
| 2026-05-07 16:15 | 41.45703 | 28.53396 | 10312 ft | 281 kts | 303° |
| 2026-05-07 16:15 | 41.46787 | 28.51113 | 10538 ft | 303 kts | 302° |
| 2026-05-07 16:16 | 41.47951 | 28.48653 | 10757 ft | 323 kts | 302° |
| 2026-05-07 16:16 | 41.49165 | 28.46079 | 11292 ft | 330 kts | 302° |
| 2026-05-07 16:16 | 41.50393 | 28.43467 | 11950 ft | 334 kts | 302° |
| 2026-05-07 16:16 | 41.51636 | 28.40825 | 12613 ft | 338 kts | 302° |
| 2026-05-07 16:17 | 41.52888 | 28.38161 | 13259 ft | 342 kts | 302° |
| 2026-05-07 16:17 | 41.54162 | 28.35447 | 13912 ft | 346 kts | 302° |
| 2026-05-07 16:17 | 41.55444 | 28.32713 | 14500 ft | 349 kts | 302° |
| 2026-05-07 16:17 | 41.56734 | 28.29962 | 15140 ft | 351 kts | 302° |
| 2026-05-07 16:18 | 41.58031 | 28.27190 | 15738 ft | 354 kts | 302° |
| 2026-05-07 16:18 | 41.59340 | 28.24392 | 16350 ft | 356 kts | 302° |
| 2026-05-07 16:18 | 41.60656 | 28.21575 | 16913 ft | 359 kts | 302° |
| 2026-05-07 16:18 | 41.61984 | 28.18729 | 17519 ft | 362 kts | 302° |
| 2026-05-07 16:19 | 41.63323 | 28.15858 | 18106 ft | 365 kts | 303° |
| 2026-05-07 16:19 | 41.64670 | 28.12967 | 18655 ft | 368 kts | 303° |
| 2026-05-07 16:19 | 41.66008 | 28.10091 | 19197 ft | 370 kts | 303° |
| 2026-05-07 16:19 | 41.67386 | 28.07126 | 19757 ft | 372 kts | 303° |
| 2026-05-07 16:20 | 41.68755 | 28.04182 | 20304 ft | 374 kts | 303° |
| 2026-05-07 16:20 | 41.70129 | 28.01222 | 20881 ft | 375 kts | 303° |
| 2026-05-07 16:20 | 41.71509 | 27.98243 | 21412 ft | 378 kts | 303° |
| 2026-05-07 16:20 | 41.72897 | 27.95242 | 21988 ft | 380 kts | 303° |
| 2026-05-07 16:21 | 41.74275 | 27.92263 | 22515 ft | 383 kts | 303° |
| 2026-05-07 16:21 | 41.75681 | 27.89220 | 23083 ft | 385 kts | 303° |
| 2026-05-07 16:21 | 41.77094 | 27.86157 | 23632 ft | 388 kts | 303° |
| 2026-05-07 16:21 | 41.78516 | 27.83076 | 24117 ft | 390 kts | 303° |
| 2026-05-07 16:22 | 41.79948 | 27.79969 | 24589 ft | 393 kts | 303° |
| 2026-05-07 16:22 | 41.81385 | 27.76846 | 25079 ft | 395 kts | 303° |
| 2026-05-07 16:22 | 41.82830 | 27.73702 | 25527 ft | 397 kts | 303° |
| 2026-05-07 16:22 | 41.84283 | 27.70540 | 26003 ft | 400 kts | 303° |
| 2026-05-07 16:23 | 41.85744 | 27.67356 | 26495 ft | 401 kts | 303° |
| 2026-05-07 16:23 | 41.87212 | 27.64153 | 26934 ft | 404 kts | 303° |
| 2026-05-07 16:23 | 41.88687 | 27.60933 | 27388 ft | 407 kts | 303° |
| 2026-05-07 16:23 | 41.90170 | 27.57689 | 27838 ft | 409 kts | 303° |
| 2026-05-07 16:24 | 41.91662 | 27.54425 | 28261 ft | 411 kts | 303° |
| 2026-05-07 16:24 | 41.93161 | 27.51140 | 28676 ft | 414 kts | 303° |
| 2026-05-07 16:24 | 41.94668 | 27.47834 | 29103 ft | 416 kts | 303° |
| 2026-05-07 16:24 | 41.96184 | 27.44504 | 29499 ft | 419 kts | 303° |
| 2026-05-07 16:25 | 41.97706 | 27.41158 | 29900 ft | 421 kts | 303° |
| 2026-05-07 16:25 | 41.98717 | 27.38933 | 30176 ft | 423 kts | 303° |
| 2026-05-07 16:25 | 42.00253 | 27.35550 | 30573 ft | 424 kts | 303° |
| 2026-05-07 16:25 | 42.01789 | 27.32163 | 30967 ft | 426 kts | 302° |
| 2026-05-07 16:26 | 42.03835 | 27.27643 | 31471 ft | 428 kts | 302° |
| 2026-05-07 16:26 | 42.05384 | 27.24220 | 31844 ft | 429 kts | 302° |
| 2026-05-07 16:26 | 42.07081 | 27.20906 | 32211 ft | 430 kts | 309° |
| 2026-05-07 16:26 | 42.08386 | 27.18829 | 32472 ft | 431 kts | 313° |
| 2026-05-07 16:27 | 42.10406 | 27.15842 | 32767 ft | 433 kts | 312° |
| 2026-05-07 16:27 | 42.12427 | 27.12825 | 33044 ft | 434 kts | 312° |
| 2026-05-07 16:27 | 42.14446 | 27.09794 | 33318 ft | 435 kts | 312° |
| 2026-05-07 16:27 | 42.16470 | 27.06747 | 33529 ft | 437 kts | 312° |
| 2026-05-07 16:28 | 42.18470 | 27.03732 | 33766 ft | 437 kts | 312° |
| 2026-05-07 16:28 | 42.20491 | 27.00681 | 34033 ft | 436 kts | 311° |
| 2026-05-07 16:28 | 42.22506 | 26.97638 | 34273 ft | 435 kts | 311° |
| 2026-05-07 16:28 | 42.24523 | 26.94590 | 34497 ft | 435 kts | 311° |
| 2026-05-07 16:29 | 42.26538 | 26.91539 | 34697 ft | 435 kts | 311° |
| 2026-05-07 16:29 | 42.28553 | 26.88489 | 34908 ft | 435 kts | 311° |
| 2026-05-07 16:29 | 42.30569 | 26.85432 | 35109 ft | 435 kts | 311° |
| 2026-05-07 16:29 | 42.32581 | 26.82379 | 35315 ft | 435 kts | 311° |
| 2026-05-07 16:30 | 42.34592 | 26.79324 | 35499 ft | 435 kts | 311° |
| 2026-05-07 16:30 | 42.36604 | 26.76264 | 35700 ft | 436 kts | 311° |
| 2026-05-07 16:30 | 42.38616 | 26.73201 | 35899 ft | 435 kts | 311° |
| 2026-05-07 16:30 | 42.40624 | 26.70139 | 36102 ft | 435 kts | 311° |
| 2026-05-07 16:31 | 42.42634 | 26.67074 | 36296 ft | 435 kts | 311° |
| 2026-05-07 16:31 | 42.44645 | 26.64003 | 36510 ft | 435 kts | 311° |
| 2026-05-07 16:31 | 42.46649 | 26.60938 | 36695 ft | 435 kts | 311° |
| 2026-05-07 16:31 | 42.48655 | 26.57868 | 36910 ft | 435 kts | 311° |
| 2026-05-07 16:32 | 42.50660 | 26.54796 | 37095 ft | 435 kts | 311° |
| 2026-05-07 16:32 | 42.52654 | 26.51710 | 37285 ft | 435 kts | 309° |
| 2026-05-07 16:32 | 42.54462 | 26.48426 | 37460 ft | 435 kts | 304° |
| 2026-05-07 16:32 | 42.56019 | 26.44905 | 37661 ft | 436 kts | 298° |
| 2026-05-07 16:33 | 42.57428 | 26.41268 | 37831 ft | 436 kts | 298° |
| 2026-05-07 16:33 | 42.58856 | 26.37644 | 38020 ft | 436 kts | 299° |
| 2026-05-07 16:33 | 42.60291 | 26.34023 | 38203 ft | 436 kts | 299° |
| 2026-05-07 16:33 | 42.61725 | 26.30401 | 38387 ft | 435 kts | 299° |
| 2026-05-07 16:34 | 42.63157 | 26.26777 | 38564 ft | 435 kts | 299° |
| 2026-05-07 16:34 | 42.64586 | 26.23151 | 38741 ft | 435 kts | 299° |
| 2026-05-07 16:34 | 42.66012 | 26.19524 | 38885 ft | 435 kts | 299° |
| 2026-05-07 16:34 | 42.67435 | 26.15898 | 38994 ft | 436 kts | 299° |
| 2026-05-07 16:35 | 42.68863 | 26.12255 | 39137 ft | 436 kts | 299° |
| 2026-05-07 16:35 | 42.70289 | 26.08613 | 39268 ft | 436 kts | 298° |
| 2026-05-07 16:35 | 42.71713 | 26.04971 | 39403 ft | 437 kts | 298° |
| 2026-05-07 16:35 | 42.73139 | 26.01318 | 39526 ft | 437 kts | 298° |
| 2026-05-07 16:36 | 42.74565 | 25.97663 | 39644 ft | 437 kts | 298° |
| 2026-05-07 16:36 | 42.75989 | 25.94009 | 39779 ft | 438 kts | 298° |
| 2026-05-07 16:36 | 42.77395 | 25.90396 | 39901 ft | 438 kts | 298° |
| 2026-05-07 16:36 | 42.78836 | 25.86685 | 40032 ft | 438 kts | 298° |
| 2026-05-07 16:37 | 42.80240 | 25.83069 | 40044 ft | 438 kts | 298° |
| 2026-05-07 16:37 | 42.83080 | 25.75735 | 40039 ft | 437 kts | 298° |
| 2026-05-07 16:38 | 42.85908 | 25.68413 | 40038 ft | 437 kts | 298° |
| 2026-05-07 16:38 | 42.88734 | 25.61081 | 40036 ft | 437 kts | 298° |
| 2026-05-07 16:39 | 42.91554 | 25.53743 | 40036 ft | 437 kts | 298° |
| 2026-05-07 16:39 | 42.94372 | 25.46391 | 40039 ft | 437 kts | 298° |
| 2026-05-07 16:40 | 42.97187 | 25.39030 | 40037 ft | 437 kts | 298° |
| 2026-05-07 16:40 | 42.99996 | 25.31665 | 40046 ft | 437 kts | 298° |
| 2026-05-07 16:41 | 43.02802 | 25.24287 | 40046 ft | 437 kts | 298° |
| 2026-05-07 16:41 | 43.05604 | 25.16903 | 40051 ft | 437 kts | 298° |
| 2026-05-07 16:42 | 43.08403 | 25.09506 | 40049 ft | 438 kts | 297° |
| 2026-05-07 16:42 | 43.11197 | 25.02100 | 40050 ft | 438 kts | 297° |
| 2026-05-07 16:43 | 43.13825 | 24.94584 | 40052 ft | 438 kts | 293° |
| 2026-05-07 16:43 | 43.16240 | 24.86925 | 40051 ft | 438 kts | 294° |
| 2026-05-07 16:44 | 43.18679 | 24.79273 | 40052 ft | 438 kts | 294° |
| 2026-05-07 16:44 | 43.21105 | 24.71610 | 40056 ft | 438 kts | 294° |
| 2026-05-07 16:45 | 43.23520 | 24.63944 | 40052 ft | 438 kts | 294° |
| 2026-05-07 16:45 | 43.25931 | 24.56270 | 40053 ft | 438 kts | 294° |
| 2026-05-07 16:46 | 43.28319 | 24.48645 | 40053 ft | 438 kts | 294° |
| 2026-05-07 16:46 | 43.30717 | 24.40966 | 40059 ft | 438 kts | 294° |
| 2026-05-07 16:47 | 43.33110 | 24.33281 | 40057 ft | 437 kts | 293° |
| 2026-05-07 16:47 | 43.35496 | 24.25593 | 40058 ft | 437 kts | 293° |
| 2026-05-07 16:48 | 43.37875 | 24.17909 | 40055 ft | 437 kts | 293° |
| 2026-05-07 16:48 | 43.40247 | 24.10223 | 40055 ft | 437 kts | 293° |
| 2026-05-07 16:49 | 43.42613 | 24.02534 | 40052 ft | 436 kts | 293° |
| 2026-05-07 16:49 | 43.44972 | 23.94846 | 40050 ft | 436 kts | 293° |
| 2026-05-07 16:50 | 43.47324 | 23.87158 | 40049 ft | 436 kts | 293° |
| 2026-05-07 16:50 | 43.49670 | 23.79463 | 40050 ft | 436 kts | 293° |
| 2026-05-07 16:51 | 43.52010 | 23.71771 | 40049 ft | 435 kts | 292° |
| 2026-05-07 16:51 | 43.54343 | 23.64074 | 40051 ft | 435 kts | 292° |
| 2026-05-07 16:52 | 43.56672 | 23.56368 | 40047 ft | 435 kts | 292° |
| 2026-05-07 16:52 | 43.58995 | 23.48661 | 40050 ft | 435 kts | 292° |
| 2026-05-07 16:53 | 43.61312 | 23.40951 | 40048 ft | 435 kts | 292° |
| 2026-05-07 16:53 | 43.63622 | 23.33238 | 40050 ft | 435 kts | 292° |
| 2026-05-07 16:54 | 43.65928 | 23.25517 | 40051 ft | 435 kts | 292° |
| 2026-05-07 16:54 | 43.68229 | 23.17790 | 40046 ft | 435 kts | 292° |
| 2026-05-07 16:55 | 43.70523 | 23.10062 | 40044 ft | 435 kts | 292° |
| 2026-05-07 16:55 | 43.72814 | 23.02321 | 40046 ft | 435 kts | 292° |
| 2026-05-07 16:56 | 43.75081 | 22.94638 | 40042 ft | 435 kts | 292° |
| 2026-05-07 16:56 | 43.78498 | 22.83010 | 40042 ft | 435 kts | 292° |
| 2026-05-07 16:57 | 43.80771 | 22.75250 | 40041 ft | 435 kts | 291° |
| 2026-05-07 16:57 | 43.83038 | 22.67483 | 40040 ft | 435 kts | 291° |
| 2026-05-07 16:58 | 43.85299 | 22.59714 | 40040 ft | 435 kts | 291° |
| 2026-05-07 16:58 | 43.87555 | 22.51935 | 40033 ft | 435 kts | 291° |
| 2026-05-07 16:59 | 43.89865 | 22.44183 | 40031 ft | 435 kts | 295° |
| 2026-05-07 16:59 | 43.92902 | 22.36926 | 40037 ft | 436 kts | 304° |
| 2026-05-07 17:00 | 43.96718 | 22.30355 | 40034 ft | 438 kts | 309° |
| 2026-05-07 17:00 | 44.00682 | 22.23937 | 40032 ft | 438 kts | 309° |
| 2026-05-07 17:01 | 44.04636 | 22.17506 | 40035 ft | 438 kts | 309° |
| 2026-05-07 17:01 | 44.08594 | 22.11058 | 40036 ft | 438 kts | 309° |
| 2026-05-07 17:02 | 44.12551 | 22.04597 | 40034 ft | 439 kts | 309° |
| 2026-05-07 17:02 | 44.16478 | 21.98175 | 40037 ft | 438 kts | 309° |
| 2026-05-07 17:03 | 44.20450 | 21.91661 | 40036 ft | 438 kts | 308° |
| 2026-05-07 17:03 | 44.24369 | 21.85218 | 40039 ft | 439 kts | 308° |
| 2026-05-07 17:04 | 44.28317 | 21.78717 | 40035 ft | 439 kts | 308° |
| 2026-05-07 17:04 | 44.32262 | 21.72205 | 40033 ft | 439 kts | 308° |
| 2026-05-07 17:05 | 44.36203 | 21.65683 | 40030 ft | 439 kts | 308° |
| 2026-05-07 17:05 | 44.40139 | 21.59154 | 40030 ft | 439 kts | 308° |
| 2026-05-07 17:06 | 44.44072 | 21.52616 | 40011 ft | 439 kts | 308° |
| 2026-05-07 17:06 | 44.48002 | 21.46067 | 40032 ft | 439 kts | 308° |
| 2026-05-07 17:07 | 44.51925 | 21.39514 | 40032 ft | 439 kts | 308° |
| 2026-05-07 17:07 | 44.55850 | 21.32945 | 40007 ft | 439 kts | 308° |
| 2026-05-07 17:08 | 44.59766 | 21.26373 | 40007 ft | 439 kts | 307° |
| 2026-05-07 17:08 | 44.63679 | 21.19793 | 40025 ft | 439 kts | 307° |
| 2026-05-07 17:09 | 44.67592 | 21.13197 | 40028 ft | 439 kts | 307° |
| 2026-05-07 17:09 | 44.71500 | 21.06593 | 40008 ft | 440 kts | 307° |
| 2026-05-07 17:10 | 44.75406 | 20.99978 | 40020 ft | 440 kts | 307° |
| 2026-05-07 17:10 | 44.79314 | 20.93345 | 40011 ft | 440 kts | 307° |
| 2026-05-07 17:11 | 44.83190 | 20.86749 | 40015 ft | 440 kts | 307° |
| 2026-05-07 17:11 | 44.87092 | 20.80094 | 40011 ft | 440 kts | 307° |
| 2026-05-07 17:12 | 44.90925 | 20.73541 | 40009 ft | 440 kts | 307° |
| 2026-05-07 17:12 | 44.94821 | 20.66865 | 40010 ft | 441 kts | 307° |
| 2026-05-07 17:13 | 44.98717 | 20.60173 | 40004 ft | 441 kts | 306° |
| 2026-05-07 17:13 | 45.02609 | 20.53473 | 40006 ft | 441 kts | 306° |
| 2026-05-07 17:14 | 45.06502 | 20.46755 | 40004 ft | 442 kts | 306° |
| 2026-05-07 17:14 | 45.10395 | 20.40022 | 40008 ft | 442 kts | 306° |
| 2026-05-07 17:15 | 45.14285 | 20.33278 | 40011 ft | 443 kts | 306° |
| 2026-05-07 17:15 | 45.18177 | 20.26513 | 40006 ft | 443 kts | 306° |
| 2026-05-07 17:16 | 45.21408 | 20.20885 | 40004 ft | 443 kts | 306° |
| 2026-05-07 17:16 | 45.25297 | 20.14096 | 39993 ft | 443 kts | 306° |
| 2026-05-07 17:17 | 45.29185 | 20.07294 | 39994 ft | 444 kts | 306° |
| 2026-05-07 17:17 | 45.33069 | 20.00481 | 39990 ft | 444 kts | 306° |
| 2026-05-07 17:18 | 45.36955 | 19.93647 | 39989 ft | 444 kts | 305° |
| 2026-05-07 17:18 | 45.40838 | 19.86805 | 39993 ft | 445 kts | 305° |
| 2026-05-07 17:19 | 45.44719 | 19.79947 | 39994 ft | 445 kts | 305° |
| 2026-05-07 17:19 | 45.48597 | 19.73078 | 39995 ft | 445 kts | 305° |
| 2026-05-07 17:20 | 45.52476 | 19.66191 | 39993 ft | 445 kts | 305° |
| 2026-05-07 17:20 | 45.56354 | 19.59290 | 39995 ft | 446 kts | 305° |
| 2026-05-07 17:21 | 45.60226 | 19.52381 | 39997 ft | 446 kts | 305° |
| 2026-05-07 17:21 | 45.64100 | 19.45452 | 39996 ft | 446 kts | 304° |
| 2026-05-07 17:22 | 45.67972 | 19.38508 | 39996 ft | 447 kts | 304° |
| 2026-05-07 17:22 | 45.71843 | 19.31552 | 39998 ft | 447 kts | 304° |
| 2026-05-07 17:23 | 45.75684 | 19.24630 | 39999 ft | 447 kts | 304° |
| 2026-05-07 17:23 | 45.79548 | 19.17650 | 39998 ft | 447 kts | 304° |
| 2026-05-07 17:24 | 45.83409 | 19.10658 | 40000 ft | 447 kts | 304° |
| 2026-05-07 17:24 | 45.87270 | 19.03652 | 40000 ft | 448 kts | 304° |
| 2026-05-07 17:25 | 45.91132 | 18.96632 | 40000 ft | 448 kts | 304° |
| 2026-05-07 17:25 | 45.94662 | 18.89307 | 39998 ft | 444 kts | 297° |
| 2026-05-07 17:26 | 45.97782 | 18.81652 | 39997 ft | 444 kts | 297° |
| 2026-05-07 17:26 | 46.00950 | 18.74013 | 39996 ft | 445 kts | 297° |
| 2026-05-07 17:27 | 46.04103 | 18.66362 | 39997 ft | 445 kts | 296° |
| 2026-05-07 17:27 | 46.07249 | 18.58683 | 39995 ft | 445 kts | 296° |
| 2026-05-07 17:28 | 46.10387 | 18.50998 | 39994 ft | 445 kts | 296° |
| 2026-05-07 17:28 | 46.13522 | 18.43298 | 39992 ft | 446 kts | 296° |
| 2026-05-07 17:29 | 46.16656 | 18.35581 | 39995 ft | 446 kts | 296° |
| 2026-05-07 17:29 | 46.19787 | 18.27848 | 39991 ft | 446 kts | 296° |
| 2026-05-07 17:30 | 46.22914 | 18.20106 | 39982 ft | 446 kts | 296° |
| 2026-05-07 17:30 | 46.26035 | 18.12356 | 39982 ft | 446 kts | 296° |
| 2026-05-07 17:31 | 46.29150 | 18.04599 | 40000 ft | 446 kts | 296° |
| 2026-05-07 17:31 | 46.32260 | 17.96833 | 39989 ft | 446 kts | 296° |
| 2026-05-07 17:32 | 46.35344 | 17.89109 | 39993 ft | 446 kts | 296° |
| 2026-05-07 17:32 | 46.38443 | 17.81327 | 39985 ft | 446 kts | 296° |
| 2026-05-07 17:33 | 46.41535 | 17.73537 | 39986 ft | 446 kts | 296° |
| 2026-05-07 17:33 | 46.44624 | 17.65736 | 39988 ft | 446 kts | 296° |
| 2026-05-07 17:34 | 46.47705 | 17.57933 | 39984 ft | 446 kts | 295° |
| 2026-05-07 17:34 | 46.50785 | 17.50108 | 39982 ft | 446 kts | 295° |
| 2026-05-07 17:35 | 46.53855 | 17.42287 | 39986 ft | 446 kts | 295° |
| 2026-05-07 17:35 | 46.56921 | 17.34454 | 39987 ft | 446 kts | 295° |
| 2026-05-07 17:36 | 46.59980 | 17.26614 | 39984 ft | 446 kts | 295° |
| 2026-05-07 17:36 | 46.63038 | 17.18756 | 39990 ft | 446 kts | 295° |
| 2026-05-07 17:37 | 46.66091 | 17.10888 | 39987 ft | 447 kts | 295° |
| 2026-05-07 17:37 | 46.69146 | 17.02994 | 39994 ft | 447 kts | 295° |
| 2026-05-07 17:38 | 46.72196 | 16.95088 | 39985 ft | 448 kts | 295° |
| 2026-05-07 17:38 | 46.75239 | 16.87175 | 39974 ft | 448 kts | 295° |
| 2026-05-07 17:39 | 46.78286 | 16.79232 | 39973 ft | 449 kts | 295° |
| 2026-05-07 17:39 | 46.81309 | 16.71328 | 39951 ft | 449 kts | 295° |
| 2026-05-07 17:40 | 46.84349 | 16.63353 | 39953 ft | 449 kts | 295° |
| 2026-05-07 17:40 | 46.87385 | 16.55367 | 39957 ft | 450 kts | 295° |
| 2026-05-07 17:41 | 46.90425 | 16.47353 | 39950 ft | 451 kts | 294° |
| 2026-05-07 17:41 | 46.93454 | 16.39333 | 39948 ft | 451 kts | 294° |
| 2026-05-07 17:42 | 46.96485 | 16.31288 | 39944 ft | 451 kts | 294° |
| 2026-05-07 17:42 | 46.99504 | 16.23237 | 39943 ft | 451 kts | 293° |
| 2026-05-07 17:43 | 47.02192 | 16.14963 | 39953 ft | 450 kts | 291° |
| 2026-05-07 17:43 | 47.04880 | 16.06678 | 39953 ft | 450 kts | 291° |
| 2026-05-07 17:44 | 47.07558 | 15.98388 | 39957 ft | 450 kts | 291° |
| 2026-05-07 17:44 | 47.10223 | 15.90079 | 39967 ft | 450 kts | 291° |
| 2026-05-07 17:45 | 47.12876 | 15.81766 | 39983 ft | 450 kts | 291° |
| 2026-05-07 17:45 | 47.15525 | 15.73439 | 39991 ft | 450 kts | 291° |
| 2026-05-07 17:46 | 47.18168 | 15.65108 | 39992 ft | 450 kts | 291° |
| 2026-05-07 17:46 | 47.20805 | 15.56770 | 39999 ft | 449 kts | 291° |
| 2026-05-07 17:47 | 47.23430 | 15.48438 | 39998 ft | 449 kts | 291° |
| 2026-05-07 17:47 | 47.26034 | 15.40148 | 39997 ft | 449 kts | 291° |
| 2026-05-07 17:48 | 47.28650 | 15.31791 | 39998 ft | 449 kts | 291° |
| 2026-05-07 17:48 | 47.31260 | 15.23427 | 39995 ft | 449 kts | 291° |
| 2026-05-07 17:49 | 47.33865 | 15.15052 | 40009 ft | 450 kts | 290° |
| 2026-05-07 17:49 | 47.36468 | 15.06653 | 40021 ft | 450 kts | 291° |
| 2026-05-07 17:50 | 47.39317 | 14.98400 | 40028 ft | 454 kts | 297° |
| 2026-05-07 17:50 | 47.42775 | 14.90565 | 40031 ft | 455 kts | 299° |
| 2026-05-07 17:51 | 47.46220 | 14.82711 | 40043 ft | 456 kts | 299° |
| 2026-05-07 17:51 | 47.49661 | 14.74840 | 40040 ft | 456 kts | 299° |
| 2026-05-07 17:52 | 47.53100 | 14.66960 | 40047 ft | 455 kts | 299° |
| 2026-05-07 17:52 | 47.56531 | 14.59074 | 40046 ft | 457 kts | 299° |
| 2026-05-07 17:53 | 47.59945 | 14.51205 | 40049 ft | 457 kts | 299° |
| 2026-05-07 17:53 | 47.63372 | 14.43285 | 40050 ft | 457 kts | 299° |
| 2026-05-07 17:54 | 47.66803 | 14.35333 | 40054 ft | 458 kts | 299° |
| 2026-05-07 17:54 | 47.70227 | 14.27373 | 40053 ft | 458 kts | 298° |
| 2026-05-07 17:55 | 47.73647 | 14.19396 | 40054 ft | 459 kts | 298° |
| 2026-05-07 17:55 | 47.77074 | 14.11380 | 40043 ft | 459 kts | 298° |
| 2026-05-07 17:56 | 47.80492 | 14.03369 | 40044 ft | 458 kts | 298° |
| 2026-05-07 17:56 | 47.83900 | 13.95349 | 40039 ft | 459 kts | 299° |
| 2026-05-07 17:57 | 47.86735 | 13.88661 | 40036 ft | 459 kts | 299° |
| 2026-05-07 17:57 | 47.90718 | 13.79241 | 40023 ft | 460 kts | 299° |
| 2026-05-07 17:58 | 47.94121 | 13.71165 | 40019 ft | 460 kts | 299° |
| 2026-05-07 17:58 | 47.97517 | 13.63081 | 40027 ft | 460 kts | 299° |
| 2026-05-07 17:59 | 48.00904 | 13.54993 | 40030 ft | 460 kts | 299° |
| 2026-05-07 17:59 | 48.04291 | 13.46885 | 40029 ft | 460 kts | 298° |
| 2026-05-07 18:00 | 48.07646 | 13.38826 | 40026 ft | 460 kts | 298° |
| 2026-05-07 18:00 | 48.11019 | 13.30699 | 40033 ft | 460 kts | 298° |
| 2026-05-07 18:01 | 48.14389 | 13.22558 | 40030 ft | 460 kts | 298° |
| 2026-05-07 18:01 | 48.17755 | 13.14399 | 40032 ft | 460 kts | 298° |
| 2026-05-07 18:02 | 48.22873 | 13.02219 | 40037 ft | 461 kts | 303° |
| 2026-05-07 18:03 | 48.26423 | 12.94236 | 40035 ft | 460 kts | 299° |
| 2026-05-07 18:03 | 48.29860 | 12.86124 | 40034 ft | 460 kts | 300° |
| 2026-05-07 18:04 | 48.33355 | 12.78053 | 40039 ft | 461 kts | 300° |
| 2026-05-07 18:04 | 48.36866 | 12.69990 | 40037 ft | 461 kts | 300° |
| 2026-05-07 18:05 | 48.40373 | 12.61918 | 40036 ft | 461 kts | 300° |
| 2026-05-07 18:05 | 48.43875 | 12.53827 | 40036 ft | 461 kts | 300° |
| 2026-05-07 18:06 | 48.47369 | 12.45732 | 40038 ft | 461 kts | 300° |
| 2026-05-07 18:06 | 48.50860 | 12.37619 | 40040 ft | 461 kts | 300° |
| 2026-05-07 18:07 | 48.53754 | 12.30874 | 40044 ft | 461 kts | 300° |
| 2026-05-07 18:07 | 48.57230 | 12.22751 | 40043 ft | 461 kts | 300° |
| 2026-05-07 18:08 | 48.60701 | 12.14615 | 40044 ft | 461 kts | 300° |
| 2026-05-07 18:08 | 48.64729 | 12.05141 | 40047 ft | 461 kts | 300° |
| 2026-05-07 18:09 | 48.67624 | 11.98312 | 40047 ft | 461 kts | 300° |
| 2026-05-07 18:09 | 48.71080 | 11.90139 | 40051 ft | 460 kts | 300° |
| 2026-05-07 18:10 | 48.74523 | 11.81968 | 40048 ft | 460 kts | 300° |
| 2026-05-07 18:10 | 48.77963 | 11.73782 | 40049 ft | 460 kts | 300° |
| 2026-05-07 18:11 | 48.81395 | 11.65590 | 40047 ft | 460 kts | 300° |
| 2026-05-07 18:11 | 48.84799 | 11.57437 | 39754 ft | 460 kts | 300° |
| 2026-05-07 18:11 | 48.86506 | 11.53340 | 39524 ft | 459 kts | 300° |
| 2026-05-07 18:12 | 48.88212 | 11.49240 | 39302 ft | 458 kts | 300° |
| 2026-05-07 18:12 | 48.89912 | 11.45147 | 39080 ft | 458 kts | 300° |
| 2026-05-07 18:12 | 48.91610 | 11.41052 | 38867 ft | 458 kts | 300° |
| 2026-05-07 18:12 | 48.93311 | 11.36944 | 38631 ft | 458 kts | 300° |
| 2026-05-07 18:13 | 48.95004 | 11.32848 | 38367 ft | 458 kts | 300° |
| 2026-05-07 18:13 | 48.96696 | 11.28748 | 38088 ft | 457 kts | 300° |
| 2026-05-07 18:13 | 48.98387 | 11.24645 | 37812 ft | 457 kts | 300° |
| 2026-05-07 18:13 | 49.00077 | 11.20539 | 37554 ft | 457 kts | 300° |
| 2026-05-07 18:14 | 49.01761 | 11.16439 | 37289 ft | 457 kts | 300° |
| 2026-05-07 18:14 | 49.03448 | 11.12330 | 37026 ft | 457 kts | 300° |
| 2026-05-07 18:14 | 49.05126 | 11.08233 | 36576 ft | 457 kts | 300° |
| 2026-05-07 18:14 | 49.06805 | 11.04128 | 36078 ft | 453 kts | 300° |
| 2026-05-07 18:15 | 49.08464 | 11.00065 | 35423 ft | 452 kts | 300° |
| 2026-05-07 18:15 | 49.10120 | 10.96003 | 34694 ft | 450 kts | 300° |
| 2026-05-07 18:15 | 49.10673 | 10.94645 | 34434 ft | 450 kts | 300° |
| 2026-05-07 18:15 | 49.11384 | 10.92898 | 34093 ft | 450 kts | 300° |
| 2026-05-07 18:16 | 49.13033 | 10.88842 | 33136 ft | 449 kts | 300° |
| 2026-05-07 18:16 | 49.14681 | 10.84785 | 32133 ft | 449 kts | 300° |
| 2026-05-07 18:16 | 49.16328 | 10.80724 | 31152 ft | 450 kts | 301° |
| 2026-05-07 18:16 | 49.17963 | 10.76689 | 30427 ft | 445 kts | 301° |
| 2026-05-07 18:17 | 49.19682 | 10.72781 | 29690 ft | 441 kts | 306° |
| 2026-05-07 18:17 | 49.21691 | 10.69273 | 28919 ft | 437 kts | 313° |
| 2026-05-07 18:17 | 49.23812 | 10.65983 | 28146 ft | 432 kts | 313° |
| 2026-05-07 18:17 | 49.25904 | 10.62708 | 27408 ft | 428 kts | 313° |
| 2026-05-07 18:18 | 49.27967 | 10.59459 | 26690 ft | 424 kts | 313° |
| 2026-05-07 18:18 | 49.30010 | 10.56232 | 25956 ft | 420 kts | 313° |
| 2026-05-07 18:18 | 49.32033 | 10.53030 | 25271 ft | 416 kts | 313° |
| 2026-05-07 18:18 | 49.34030 | 10.49870 | 24696 ft | 409 kts | 313° |
| 2026-05-07 18:19 | 49.35948 | 10.46710 | 24262 ft | 402 kts | 309° |
| 2026-05-07 18:19 | 49.37638 | 10.43235 | 24090 ft | 410 kts | 303° |
| 2026-05-07 18:19 | 49.39258 | 10.39628 | 24056 ft | 410 kts | 305° |
| 2026-05-07 18:19 | 49.40921 | 10.36076 | 24052 ft | 410 kts | 304° |
| 2026-05-07 18:20 | 49.42541 | 10.32464 | 24053 ft | 410 kts | 303° |
| 2026-05-07 18:20 | 49.44157 | 10.28849 | 24049 ft | 410 kts | 303° |
| 2026-05-07 18:20 | 49.45781 | 10.25251 | 24062 ft | 410 kts | 304° |
| 2026-05-07 18:20 | 49.47417 | 10.21650 | 24062 ft | 410 kts | 304° |
| 2026-05-07 18:21 | 49.49055 | 10.18062 | 24062 ft | 410 kts | 304° |
| 2026-05-07 18:21 | 49.50697 | 10.14469 | 24044 ft | 410 kts | 304° |
| 2026-05-07 18:21 | 49.52293 | 10.10828 | 23853 ft | 409 kts | 298° |
| 2026-05-07 18:21 | 49.53384 | 10.06814 | 23625 ft | 406 kts | 286° |
| 2026-05-07 18:22 | 49.54043 | 10.02593 | 23349 ft | 405 kts | 281° |
| 2026-05-07 18:22 | 49.54410 | 9.99794 | 23180 ft | 403 kts | 281° |
| 2026-05-07 18:22 | 49.55174 | 9.94162 | 22805 ft | 401 kts | 282° |
| 2026-05-07 18:22 | 49.55795 | 9.89987 | 22502 ft | 398 kts | 283° |
| 2026-05-07 18:23 | 49.56443 | 9.85864 | 22044 ft | 395 kts | 283° |
| 2026-05-07 18:23 | 49.57104 | 9.81774 | 21427 ft | 391 kts | 283° |
| 2026-05-07 18:23 | 49.57762 | 9.77742 | 20706 ft | 387 kts | 283° |
| 2026-05-07 18:23 | 49.58413 | 9.73748 | 20027 ft | 381 kts | 283° |
| 2026-05-07 18:24 | 49.59055 | 9.69801 | 19634 ft | 380 kts | 283° |
| 2026-05-07 18:24 | 49.59695 | 9.65843 | 19258 ft | 380 kts | 283° |
| 2026-05-07 18:24 | 49.60331 | 9.61900 | 18858 ft | 378 kts | 283° |
| 2026-05-07 18:24 | 49.60961 | 9.57991 | 18447 ft | 375 kts | 283° |
| 2026-05-07 18:25 | 49.61585 | 9.54104 | 17994 ft | 373 kts | 283° |
| 2026-05-07 18:25 | 49.62205 | 9.50229 | 17538 ft | 371 kts | 283° |
| 2026-05-07 18:25 | 49.62820 | 9.46384 | 17089 ft | 369 kts | 283° |
| 2026-05-07 18:25 | 49.63431 | 9.42549 | 16646 ft | 367 kts | 283° |
| 2026-05-07 18:26 | 49.64040 | 9.38725 | 16197 ft | 366 kts | 283° |
| 2026-05-07 18:26 | 49.64644 | 9.34925 | 15774 ft | 364 kts | 283° |
| 2026-05-07 18:26 | 49.65242 | 9.31144 | 15347 ft | 362 kts | 283° |
| 2026-05-07 18:26 | 49.65836 | 9.27386 | 14927 ft | 361 kts | 283° |
| 2026-05-07 18:27 | 49.66430 | 9.23624 | 14507 ft | 359 kts | 283° |
| 2026-05-07 18:27 | 49.67017 | 9.19891 | 14117 ft | 358 kts | 283° |
| 2026-05-07 18:27 | 49.67602 | 9.16164 | 13732 ft | 356 kts | 283° |
| 2026-05-07 18:27 | 49.68182 | 9.12463 | 13303 ft | 354 kts | 283° |
| 2026-05-07 18:28 | 49.68759 | 9.08776 | 12890 ft | 352 kts | 283° |
| 2026-05-07 18:28 | 49.69330 | 9.05113 | 12463 ft | 349 kts | 283° |
| 2026-05-07 18:28 | 49.69895 | 9.01477 | 12055 ft | 347 kts | 283° |
| 2026-05-07 18:28 | 49.70450 | 8.97906 | 11657 ft | 346 kts | 283° |
| 2026-05-07 18:29 | 49.71014 | 8.94259 | 11259 ft | 344 kts | 283° |
| 2026-05-07 18:29 | 49.71546 | 8.90816 | 11099 ft | 342 kts | 283° |
| 2026-05-07 18:29 | 49.72098 | 8.87231 | 11055 ft | 343 kts | 283° |
| 2026-05-07 18:29 | 49.72651 | 8.83643 | 11051 ft | 329 kts | 283° |
| 2026-05-07 18:30 | 49.73159 | 8.80334 | 11048 ft | 303 kts | 283° |
| 2026-05-07 18:30 | 49.73618 | 8.77335 | 11047 ft | 278 kts | 283° |
| 2026-05-07 18:30 | 49.74060 | 8.74446 | 11054 ft | 275 kts | 283° |
| 2026-05-07 18:30 | 49.74499 | 8.71566 | 11053 ft | 274 kts | 283° |
| 2026-05-07 18:31 | 49.74936 | 8.68695 | 11053 ft | 274 kts | 283° |
| 2026-05-07 18:31 | 49.75372 | 8.65823 | 11052 ft | 274 kts | 283° |
| 2026-05-07 18:31 | 49.75808 | 8.62948 | 11051 ft | 275 kts | 283° |
| 2026-05-07 18:31 | 49.76243 | 8.60074 | 11050 ft | 275 kts | 283° |
| 2026-05-07 18:32 | 49.76679 | 8.57194 | 11052 ft | 275 kts | 283° |
| 2026-05-07 18:32 | 49.77113 | 8.54320 | 11049 ft | 274 kts | 283° |
| 2026-05-07 18:32 | 49.77546 | 8.51444 | 11052 ft | 275 kts | 283° |
| 2026-05-07 18:32 | 49.77978 | 8.48565 | 11033 ft | 274 kts | 283° |
| 2026-05-07 18:33 | 49.78406 | 8.45712 | 10789 ft | 272 kts | 283° |
| 2026-05-07 18:33 | 49.78832 | 8.42871 | 10345 ft | 270 kts | 283° |
| 2026-05-07 18:33 | 49.79254 | 8.40045 | 9782 ft | 269 kts | 283° |
| 2026-05-07 18:33 | 49.79673 | 8.37234 | 9174 ft | 266 kts | 283° |
| 2026-05-07 18:34 | 49.80086 | 8.34459 | 8576 ft | 264 kts | 283° |
| 2026-05-07 18:34 | 49.80598 | 8.31757 | 7927 ft | 262 kts | 296° |
| 2026-05-07 18:34 | 49.81727 | 8.29596 | 7339 ft | 260 kts | 321° |
| 2026-05-07 18:34 | 49.83304 | 8.28266 | 6760 ft | 257 kts | 334° |
| 2026-05-07 18:35 | 49.84907 | 8.27077 | 6195 ft | 254 kts | 333° |
| 2026-05-07 18:35 | 49.86448 | 8.25927 | 5989 ft | 237 kts | 333° |
| 2026-05-07 18:35 | 49.87836 | 8.24638 | 5534 ft | 232 kts | 319° |
| 2026-05-07 18:35 | 49.88961 | 8.22879 | 5152 ft | 228 kts | 313° |
| 2026-05-07 18:36 | 49.90202 | 8.21382 | 5014 ft | 231 kts | 335° |
| 2026-05-07 18:36 | 49.91765 | 8.20972 | 5004 ft | 230 kts | 5° |
| 2026-05-07 18:36 | 49.93261 | 8.21819 | 5005 ft | 232 kts | 34° |
| 2026-05-07 18:36 | 49.94408 | 8.23468 | 5000 ft | 215 kts | 44° |
| 2026-05-07 18:37 | 49.95421 | 8.25036 | 4998 ft | 197 kts | 46° |
| 2026-05-07 18:37 | 49.96190 | 8.26662 | 4998 ft | 183 kts | 59° |
| 2026-05-07 18:37 | 49.96742 | 8.28447 | 5002 ft | 186 kts | 66° |
| 2026-05-07 18:37 | 49.97055 | 8.30376 | 4825 ft | 186 kts | 91° |
| 2026-05-07 18:38 | 49.96603 | 8.32231 | 4811 ft | 202 kts | 129° |
| 2026-05-07 18:38 | 49.95348 | 8.33550 | 5000 ft | 234 kts | 162° |
| 2026-05-07 18:38 | 49.93725 | 8.33982 | 5001 ft | 239 kts | 174° |
| 2026-05-07 18:38 | 49.92072 | 8.34313 | 5001 ft | 240 kts | 174° |
| 2026-05-07 18:39 | 49.90416 | 8.34640 | 5004 ft | 240 kts | 174° |
| 2026-05-07 18:39 | 49.88775 | 8.34386 | 4999 ft | 238 kts | 202° |
| 2026-05-07 18:39 | 49.87448 | 8.32942 | 4858 ft | 233 kts | 232° |
| 2026-05-07 18:39 | 49.86741 | 8.30725 | 4412 ft | 230 kts | 254° |
| 2026-05-07 18:40 | 49.86249 | 8.28369 | 4078 ft | 230 kts | 254° |
| 2026-05-07 18:40 | 49.85767 | 8.25984 | 4007 ft | 232 kts | 254° |
| 2026-05-07 18:40 | 49.85271 | 8.23607 | 4003 ft | 232 kts | 254° |
| 2026-05-07 18:40 | 49.84798 | 8.21220 | 3994 ft | 232 kts | 259° |
| 2026-05-07 18:41 | 49.84885 | 8.18762 | 4002 ft | 230 kts | 290° |
| 2026-05-07 18:41 | 49.85765 | 8.16744 | 4002 ft | 228 kts | 321° |
| 2026-05-07 18:41 | 49.87176 | 8.15689 | 4013 ft | 227 kts | 344° |
| 2026-05-07 18:41 | 49.88692 | 8.14977 | 4000 ft | 228 kts | 344° |
| 2026-05-07 18:42 | 49.90206 | 8.14263 | 4006 ft | 227 kts | 344° |
| 2026-05-07 18:42 | 49.91759 | 8.13979 | 4006 ft | 227 kts | 9° |
| 2026-05-07 18:42 | 49.93135 | 8.15119 | 4008 ft | 229 kts | 46° |
| 2026-05-07 18:42 | 49.94004 | 8.17185 | 4000 ft | 230 kts | 64° |
| 2026-05-07 18:43 | 49.94610 | 8.19485 | 4003 ft | 231 kts | 69° |
| 2026-05-07 18:43 | 49.95161 | 8.21795 | 3998 ft | 220 kts | 69° |
| 2026-05-07 18:43 | 49.95675 | 8.23918 | 3997 ft | 201 kts | 69° |
| 2026-05-07 18:43 | 49.96145 | 8.25875 | 3992 ft | 186 kts | 69° |
| 2026-05-07 18:44 | 49.96591 | 8.27723 | 3864 ft | 180 kts | 68° |
| 2026-05-07 18:44 | 49.97025 | 8.29528 | 3607 ft | 178 kts | 68° |
| 2026-05-07 18:44 | 49.97455 | 8.31317 | 3366 ft | 176 kts | 68° |
| 2026-05-07 18:44 | 49.97882 | 8.33093 | 3120 ft | 175 kts | 68° |
| 2026-05-07 18:45 | 49.98308 | 8.34866 | 2882 ft | 174 kts | 68° |
| 2026-05-07 18:45 | 49.98722 | 8.36594 | 2662 ft | 172 kts | 68° |
| 2026-05-07 18:45 | 49.99145 | 8.38353 | 2418 ft | 172 kts | 69° |
| 2026-05-07 18:45 | 49.99559 | 8.40085 | 2182 ft | 172 kts | 69° |
| 2026-05-07 18:46 | 49.99963 | 8.41769 | 1946 ft | 161 kts | 69° |
| 2026-05-07 18:46 | 50.00332 | 8.43315 | 1735 ft | 144 kts | 69° |
| 2026-05-07 18:46 | 50.00668 | 8.44714 | 1531 ft | 137 kts | 69° |
| 2026-05-07 18:46 | 50.01000 | 8.46103 | 1346 ft | 133 kts | 69° |
| 2026-05-07 18:47 | 50.01328 | 8.47472 | 1163 ft | 138 kts | 69° |
| 2026-05-07 18:47 | 50.01652 | 8.48828 | 990 ft | 134 kts | 69° |
| 2026-05-07 18:47 | 50.01979 | 8.50197 | 792 ft | 131 kts | 69° |
| 2026-05-07 18:47 | 50.02298 | 8.51529 | 635 ft | 133 kts | 69° |
| 2026-05-07 18:48 | 50.02607 | 8.52829 | 430 ft | 127 kts | 69° |
| 2026-05-07 18:48 | 50.02928 | 8.54141 | 353 ft | 127 kts | 69° |
| 2026-05-07 18:48 | 50.03173 | 8.55165 | 354 ft | 72 kts | 70° |
| 2026-05-07 18:48 | 50.03310 | 8.55740 | 357 ft | 52 kts | 69° |
| 2026-05-07 18:49 | 50.03428 | 8.56229 | 364 ft | 45 kts | 70° |
| 2026-05-07 18:49 | 50.03523 | 8.56628 | 363 ft | 21 kts | 70° |
| 2026-05-07 18:49 | 50.03579 | 8.56845 | 359 ft | 22 kts | 61° |
| 2026-05-07 18:49 | 50.03673 | 8.57041 | 365 ft | 23 kts | 43° |
| 2026-05-07 18:50 | 50.03787 | 8.57192 | 368 ft | 17 kts | 38° |
| 2026-05-07 18:50 | 50.03867 | 8.57296 | 370 ft | 12 kts | 40° |
| 2026-05-07 18:50 | 50.03896 | 8.57334 | 373 ft | 2 kts | 40° |
| 2026-05-07 18:50 | 50.03923 | 8.57371 | 375 ft | 6 kts | 41° |
| 2026-05-07 18:51 | 50.03958 | 8.57433 | 374 ft | 9 kts | 55° |
| 2026-05-07 18:51 | 50.03989 | 8.57550 | 372 ft | 14 kts | 68° |
| 2026-05-07 18:51 | 50.04025 | 8.57695 | 374 ft | 13 kts | 69° |
| 2026-05-07 18:51 | 50.04062 | 8.57848 | 374 ft | 17 kts | 70° |
| 2026-05-07 18:52 | 50.04109 | 8.58045 | 377 ft | 21 kts | 70° |
| 2026-05-07 18:52 | 50.04164 | 8.58276 | 375 ft | 22 kts | 70° |
| 2026-05-07 18:52 | 50.04218 | 8.58505 | 378 ft | 19 kts | 70° |
| 2026-05-07 18:52 | 50.04301 | 8.58615 | 379 ft | 16 kts | 14° |
| 2026-05-07 18:53 | 50.04380 | 8.58634 | 376 ft | 18 kts | 6° |
| 2026-05-07 18:53 | 50.04499 | 8.58654 | 377 ft | 17 kts | 7° |
| 2026-05-07 18:53 | 50.04597 | 8.58727 | 377 ft | 11 kts | 33° |
| 2026-05-07 18:53 | 50.04649 | 8.58753 | 376 ft | 0 kts | 10° |
| 2026-05-07 18:55 | 50.04662 | 8.58749 | 376 ft | 4 kts | 349° |
| 2026-05-07 18:55 | 50.04687 | 8.58698 | 376 ft | 9 kts | 298° |
| 2026-05-07 18:56 | 50.04675 | 8.58565 | 377 ft | 16 kts | 248° |
| 2026-05-07 18:56 | 50.04628 | 8.58379 | 377 ft | 22 kts | 248° |
| 2026-05-07 18:56 | 50.04574 | 8.58154 | 374 ft | 23 kts | 249° |
| 2026-05-07 18:56 | 50.04512 | 8.57906 | 375 ft | 25 kts | 251° |
| 2026-05-07 18:57 | 50.04467 | 8.57680 | 373 ft | 21 kts | 265° |
| 2026-05-07 18:57 | 50.04547 | 8.57525 | 373 ft | 14 kts | 335° |
| 2026-05-07 18:57 | 50.04639 | 8.57479 | 366 ft | 13 kts | 3° |
| 2026-05-07 18:57 | 50.04701 | 8.57523 | 367 ft | 10 kts | 28° |
| 2026-05-07 18:58 | 50.04718 | 8.57538 | 369 ft | 2 kts | 29° |
| 2026-05-07 18:58 | 50.04726 | 8.57545 | 368 ft | 0 kts | 29° |